createdAt,value
2019-04-26T00:00:21.875Z,0.00
2019-04-26T00:01:22.363Z,0.00
2019-04-26T00:02:22.802Z,0.00
2019-04-26T00:03:23.233Z,0.00
2019-04-26T00:04:22.794Z,0.00
2019-04-26T00:05:34.502Z,0.00
2019-04-26T00:06:23.581Z,0.00
2019-04-26T00:07:24.963Z,0.00
2019-04-26T00:08:24.350Z,0.00
2019-04-26T00:09:25.661Z,0.00
2019-04-26T00:10:26.195Z,0.00
2019-04-26T00:11:26.099Z,0.00
2019-04-26T00:12:27.385Z,0.00
2019-04-26T00:13:26.732Z,0.00
2019-04-26T00:14:27.024Z,0.00
2019-04-26T00:15:28.522Z,0.00
2019-04-26T00:16:27.946Z,0.00
2019-04-26T00:17:29.402Z,0.00
2019-04-26T00:18:29.403Z,0.00
2019-04-26T00:19:29.923Z,0.00
2019-04-26T00:20:29.442Z,0.00
2019-04-26T00:21:30.921Z,0.00
2019-04-26T00:22:30.390Z,0.00
2019-04-26T00:23:31.814Z,0.00
2019-04-26T00:24:31.224Z,0.00
2019-04-26T00:25:32.640Z,0.00
2019-04-26T00:26:33.045Z,0.00
2019-04-26T00:27:33.480Z,0.00
2019-04-26T00:28:34.060Z,0.00
2019-04-26T00:29:34.474Z,0.00
2019-04-26T00:30:35.218Z,0.00
2019-04-26T00:31:35.797Z,0.00
2019-04-26T00:32:36.188Z,0.00
2019-04-26T00:32:44.743Z,0.00
2019-04-26T00:33:46.120Z,0.00
2019-04-26T00:34:46.741Z,0.00
2019-04-26T00:35:47.891Z,0.00
2019-04-26T00:36:47.165Z,0.00
2019-04-26T00:37:48.419Z,0.00
2019-04-26T00:38:48.693Z,0.00
2019-04-26T00:39:48.966Z,0.00
2019-04-26T00:40:49.290Z,0.00
2019-04-26T00:41:49.742Z,0.00
2019-04-26T00:42:50.176Z,0.00
2019-04-26T00:43:50.531Z,0.00
2019-04-26T00:44:50.753Z,0.00
2019-04-26T00:45:51.066Z,0.00
2019-04-26T00:46:51.745Z,0.00
2019-04-26T00:47:52.154Z,0.00
2019-04-26T00:48:52.719Z,0.00
2019-04-26T00:49:52.133Z,0.00
2019-04-26T00:50:53.627Z,0.00
2019-04-26T00:51:54.100Z,0.00
2019-04-26T00:52:54.555Z,0.00
2019-04-26T00:53:54.026Z,0.00
2019-04-26T00:54:55.400Z,0.00
2019-04-26T00:55:55.465Z,0.00
2019-04-26T00:56:55.893Z,0.00
2019-04-26T00:57:56.477Z,0.00
2019-04-26T00:58:56.906Z,0.00
2019-04-26T00:59:57.447Z,0.00
2019-04-26T01:00:57.864Z,0.00
2019-04-26T01:01:58.361Z,0.00
2019-04-26T01:02:58.704Z,0.00
2019-04-26T01:03:59.174Z,0.00
2019-04-26T01:04:59.531Z,0.00
2019-04-26T01:06:00.407Z,0.00
2019-04-26T01:06:59.188Z,0.00
2019-04-26T01:08:00.661Z,0.00
2019-04-26T01:09:01.161Z,0.00
2019-04-26T01:10:01.408Z,0.00
2019-04-26T01:11:02.004Z,0.00
2019-04-26T01:12:02.421Z,0.00
2019-04-26T01:13:02.810Z,0.00
2019-04-26T01:14:03.215Z,0.00
2019-04-26T01:15:03.698Z,0.00
2019-04-26T01:16:04.212Z,0.00
2019-04-26T01:17:04.641Z,0.00
2019-04-26T01:18:04.967Z,0.00
2019-04-26T01:19:05.668Z,0.00
2019-04-26T01:20:06.062Z,0.00
2019-04-26T01:20:14.657Z,0.00
2019-04-26T01:21:17.110Z,0.00
2019-04-26T01:22:15.557Z,0.00
2019-04-26T01:23:17.493Z,0.00
2019-04-26T01:24:16.893Z,0.00
2019-04-26T01:25:17.518Z,0.00
2019-04-26T01:26:17.733Z,0.00
2019-04-26T01:27:17.128Z,0.00
2019-04-26T01:28:18.490Z,0.00
2019-04-26T01:29:18.599Z,0.00
2019-04-26T01:30:18.356Z,0.00
2019-04-26T01:31:18.640Z,0.00
2019-04-26T01:32:19.215Z,0.00
2019-04-26T01:33:20.033Z,0.00
2019-04-26T01:34:20.343Z,0.00
2019-04-26T01:35:20.369Z,0.00
2019-04-26T01:36:20.538Z,0.00
2019-04-26T01:37:20.662Z,0.00
2019-04-26T01:38:21.794Z,0.00
2019-04-26T01:39:22.349Z,0.00
2019-04-26T01:40:22.040Z,0.00
2019-04-26T01:41:22.362Z,0.00
2019-04-26T01:42:22.671Z,0.00
2019-04-26T01:43:24.424Z,0.00
2019-04-26T01:44:24.558Z,0.00
2019-04-26T01:45:23.711Z,0.00
2019-04-26T01:46:25.071Z,0.00
2019-04-26T01:47:26.254Z,0.00
2019-04-26T01:48:25.070Z,0.00
2019-04-26T01:49:26.189Z,0.00
2019-04-26T01:50:25.751Z,0.00
2019-04-26T01:51:27.133Z,0.00
2019-04-26T01:52:27.782Z,0.00
2019-04-26T01:53:28.795Z,0.00
2019-04-26T01:54:27.830Z,0.00
2019-04-26T01:55:29.073Z,0.00
2019-04-26T01:56:29.210Z,0.00
2019-04-26T01:57:29.437Z,0.00
2019-04-26T01:58:29.335Z,0.00
2019-04-26T01:59:29.527Z,0.00
2019-04-26T02:00:29.583Z,0.00
2019-04-26T02:01:29.850Z,0.00
2019-04-26T02:02:32.001Z,0.00
2019-04-26T02:03:30.615Z,0.00
2019-04-26T02:04:32.070Z,0.00
2019-04-26T02:05:32.017Z,0.00
2019-04-26T02:06:34.910Z,0.00
2019-04-26T02:07:32.522Z,0.00
2019-04-26T02:08:32.483Z,0.00
2019-04-26T02:09:32.793Z,0.00
2019-04-26T02:10:32.940Z,0.00
2019-04-26T02:11:34.363Z,0.00
2019-04-26T02:12:34.763Z,0.00
2019-04-26T02:13:35.139Z,0.00
2019-04-26T02:14:35.547Z,0.00
2019-04-26T02:15:35.847Z,0.00
2019-04-26T02:16:36.155Z,0.00
2019-04-26T02:17:36.389Z,0.00
2019-04-26T02:18:36.775Z,0.00
2019-04-26T02:19:37.156Z,0.00
2019-04-26T02:20:37.431Z,0.00
2019-04-26T02:21:37.813Z,0.00
2019-04-26T02:22:38.478Z,0.00
2019-04-26T02:23:38.154Z,0.00
2019-04-26T02:24:39.418Z,0.00
2019-04-26T02:25:39.755Z,0.00
2019-04-26T02:26:40.104Z,0.00
2019-04-26T02:27:40.594Z,0.00
2019-04-26T02:28:41.236Z,0.00
2019-04-26T02:29:41.693Z,0.00
2019-04-26T02:30:42.246Z,0.00
2019-04-26T02:31:42.717Z,0.00
2019-04-26T02:32:43.072Z,0.00
2019-04-26T02:33:43.607Z,0.00
2019-04-26T02:34:44.067Z,0.00
2019-04-26T02:34:52.599Z,0.00
2019-04-26T02:35:53.945Z,0.00
2019-04-26T02:36:58.513Z,0.00
2019-04-26T02:37:53.736Z,0.00
2019-04-26T02:38:55.405Z,0.00
2019-04-26T02:39:55.696Z,0.00
2019-04-26T02:40:55.958Z,0.00
2019-04-26T02:41:56.245Z,0.00
2019-04-26T02:42:55.649Z,0.00
2019-04-26T02:43:56.918Z,0.00
2019-04-26T02:44:57.505Z,0.00
2019-04-26T02:45:58.058Z,0.00
2019-04-26T02:46:58.384Z,0.00
2019-04-26T02:47:58.844Z,0.00
2019-04-26T02:48:59.450Z,0.00
2019-04-26T02:49:59.742Z,0.00
2019-04-26T02:51:00.156Z,0.00
2019-04-26T02:52:00.527Z,0.00
2019-04-26T02:53:00.930Z,0.00
2019-04-26T02:54:01.407Z,0.00
2019-04-26T02:55:01.848Z,0.00
2019-04-26T02:56:02.772Z,0.00
2019-04-26T02:57:03.211Z,0.00
2019-04-26T02:58:03.566Z,0.00
2019-04-26T02:59:03.973Z,0.00
2019-04-26T03:00:04.370Z,0.00
2019-04-26T03:01:04.707Z,0.00
2019-04-26T03:02:05.052Z,0.00
2019-04-26T03:03:05.311Z,0.00
2019-04-26T03:04:05.629Z,0.00
2019-04-26T03:05:06.426Z,0.00
2019-04-26T03:06:06.760Z,0.00
2019-04-26T03:07:07.384Z,0.00
2019-04-26T03:08:07.851Z,0.00
2019-04-26T03:09:08.212Z,0.00
2019-04-26T03:10:08.770Z,0.00
2019-04-26T03:11:07.763Z,0.00
2019-04-26T03:12:09.202Z,0.00
2019-04-26T03:13:09.580Z,0.00
2019-04-26T03:14:09.993Z,0.00
2019-04-26T03:15:14.120Z,0.00
2019-04-26T03:16:09.875Z,0.00
2019-04-26T03:17:11.272Z,0.00
2019-04-26T03:18:11.702Z,0.00
2019-04-26T03:19:12.131Z,0.00
2019-04-26T03:20:12.451Z,0.00
2019-04-26T03:21:13.047Z,0.00
2019-04-26T03:21:21.570Z,0.00
2019-04-26T03:22:22.860Z,0.00
2019-04-26T03:23:23.224Z,0.00
2019-04-26T03:24:23.643Z,0.00
2019-04-26T03:25:23.890Z,0.00
2019-04-26T03:26:24.208Z,0.00
2019-04-26T03:27:24.560Z,0.05
2019-04-26T03:28:25.142Z,0.05
2019-04-26T03:29:24.428Z,0.05
2019-04-26T03:30:25.941Z,0.05
2019-04-26T03:31:25.352Z,0.05
2019-04-26T03:32:26.754Z,0.05
2019-04-26T03:33:27.161Z,0.05
2019-04-26T03:34:26.497Z,0.05
2019-04-26T03:35:27.889Z,0.05
2019-04-26T03:36:28.151Z,0.05
2019-04-26T03:37:28.498Z,0.05
2019-04-26T03:38:29.126Z,0.09
2019-04-26T03:39:29.520Z,0.09
2019-04-26T03:40:29.905Z,0.14
2019-04-26T03:41:30.164Z,0.14
2019-04-26T03:42:30.606Z,0.18
2019-04-26T03:43:30.843Z,0.18
2019-04-26T03:44:31.202Z,0.22
2019-04-26T03:45:30.429Z,0.27
2019-04-26T03:46:31.813Z,0.31
2019-04-26T03:47:30.995Z,0.41
2019-04-26T03:48:33.929Z,0.50
2019-04-26T03:49:31.843Z,0.68
2019-04-26T03:50:35.242Z,0.86
2019-04-26T03:51:33.808Z,1.03
2019-04-26T03:52:35.334Z,1.22
2019-04-26T03:53:35.464Z,1.44
2019-04-26T03:55:54.648Z,2.34
2019-04-26T03:56:55.165Z,2.79
2019-04-26T03:57:56.516Z,3.29
2019-04-26T03:58:56.780Z,3.78
2019-04-26T03:59:57.323Z,4.36
2019-04-26T04:00:57.663Z,5.04
2019-04-26T04:01:58.109Z,5.76
2019-04-26T04:02:58.657Z,6.61
2019-04-26T04:03:58.988Z,7.51
2019-04-26T04:04:59.269Z,8.15
2019-04-26T04:05:59.715Z,8.86
2019-04-26T04:07:04.724Z,9.90
2019-04-26T04:07:59.698Z,11.34
2019-04-26T04:09:01.148Z,13.05
2019-04-26T04:10:01.657Z,15.12
2019-04-26T04:11:02.109Z,17.73
2019-04-26T04:12:10.818Z,21.15
2019-04-26T04:13:01.943Z,25.20
2019-04-26T04:14:03.456Z,29.52
2019-04-26T04:15:02.657Z,35.10
2019-04-26T04:16:02.919Z,41.22
2019-04-26T04:17:04.327Z,46.80
2019-04-26T04:18:04.624Z,50.76
2019-04-26T04:19:04.899Z,54.72
2019-04-26T04:20:05.269Z,59.40
2019-04-26T04:21:05.628Z,64.80
2019-04-26T04:22:05.120Z,64.80
2019-04-26T04:23:06.461Z,60.84
2019-04-26T04:24:06.708Z,58.32
2019-04-26T04:25:07.024Z,57.96
2019-04-26T04:26:07.518Z,61.92
2019-04-26T04:27:07.909Z,76.32
2019-04-26T04:28:08.360Z,90.00
2019-04-26T04:29:08.708Z,101.52
2019-04-26T04:30:09.123Z,112.32
2019-04-26T04:31:09.484Z,123.84
2019-04-26T04:32:10.192Z,134.64
2019-04-26T04:33:09.932Z,149.76
2019-04-26T04:34:11.438Z,154.80
2019-04-26T04:35:11.954Z,154.08
2019-04-26T04:36:12.410Z,156.24
2019-04-26T04:37:12.661Z,169.92
2019-04-26T04:38:12.961Z,174.24
2019-04-26T04:39:13.495Z,176.40
2019-04-26T04:40:12.784Z,182.16
2019-04-26T04:41:14.065Z,194.40
2019-04-26T04:42:14.447Z,211.68
2019-04-26T04:42:22.990Z,216.00
2019-04-26T04:43:24.506Z,249.12
2019-04-26T04:44:23.760Z,275.04
2019-04-26T04:45:24.025Z,300.96
2019-04-26T04:46:25.611Z,329.76
2019-04-26T04:47:25.801Z,364.32
2019-04-26T04:48:25.438Z,406.08
2019-04-26T04:49:26.887Z,449.28
2019-04-26T04:50:27.256Z,489.60
2019-04-26T04:51:27.801Z,515.52
2019-04-26T04:52:28.294Z,544.32
2019-04-26T04:53:28.753Z,570.24
2019-04-26T04:54:29.114Z,616.32
2019-04-26T04:55:29.485Z,673.92
2019-04-26T04:56:29.755Z,722.88
2019-04-26T04:57:30.380Z,766.08
2019-04-26T04:58:29.680Z,800.64
2019-04-26T04:59:30.958Z,852.48
2019-04-26T05:00:31.262Z,823.68
2019-04-26T05:01:32.017Z,846.72
2019-04-26T05:02:31.385Z,864.00
2019-04-26T05:03:31.705Z,892.80
2019-04-26T05:04:33.015Z,944.64
2019-04-26T05:05:33.242Z,984.96
2019-04-26T05:06:33.747Z,979.20
2019-04-26T05:07:34.050Z,950.40
2019-04-26T05:08:34.449Z,898.56
2019-04-26T05:09:34.762Z,846.72
2019-04-26T05:10:35.209Z,806.40
2019-04-26T05:11:35.554Z,789.12
2019-04-26T05:12:34.869Z,789.12
2019-04-26T05:13:36.160Z,806.40
2019-04-26T05:14:36.539Z,829.44
2019-04-26T05:15:37.054Z,864.00
2019-04-26T05:16:37.388Z,915.84
2019-04-26T05:17:37.742Z,984.96
2019-04-26T05:18:38.061Z,1117.44
2019-04-26T05:19:38.357Z,1209.60
2019-04-26T05:20:38.684Z,1307.52
2019-04-26T05:21:39.111Z,1440.00
2019-04-26T05:22:39.390Z,1578.24
2019-04-26T05:23:39.668Z,1797.12
2019-04-26T05:24:40.094Z,2016.00
2019-04-26T05:25:40.592Z,2211.84
2019-04-26T05:26:39.697Z,2269.44
2019-04-26T05:27:40.969Z,2350.08
2019-04-26T05:28:41.259Z,2419.20
2019-04-26T05:29:41.743Z,2419.20
2019-04-26T05:30:42.593Z,2304.00
2019-04-26T05:31:45.818Z,2131.20
2019-04-26T05:32:42.481Z,1923.84
2019-04-26T05:33:43.831Z,1716.48
2019-04-26T05:33:52.553Z,1681.92
2019-04-26T05:34:52.915Z,1509.12
2019-04-26T05:35:53.230Z,1370.88
2019-04-26T05:36:56.807Z,1221.12
2019-04-26T05:37:55.179Z,1088.64
2019-04-26T05:38:55.365Z,1008.00
2019-04-26T05:39:55.318Z,996.48
2019-04-26T05:40:55.643Z,1082.88
2019-04-26T05:41:55.717Z,1169.28
2019-04-26T05:42:55.951Z,1180.80
2019-04-26T05:43:58.006Z,1134.72
2019-04-26T05:44:56.792Z,1082.88
2019-04-26T05:45:58.084Z,1094.40
2019-04-26T05:46:57.900Z,1140.48
2019-04-26T05:48:08.236Z,1180.80
2019-04-26T05:48:58.498Z,1175.04
2019-04-26T05:49:59.833Z,1077.12
2019-04-26T05:51:00.307Z,996.48
2019-04-26T05:52:02.063Z,967.68
2019-04-26T05:53:00.365Z,990.72
2019-04-26T05:54:01.730Z,1013.76
2019-04-26T05:55:02.693Z,1048.32
2019-04-26T05:56:02.509Z,1054.08
2019-04-26T05:57:02.659Z,1094.40
2019-04-26T05:58:02.902Z,1198.08
2019-04-26T05:59:03.099Z,1272.96
2019-04-26T06:00:03.026Z,1416.96
2019-04-26T06:01:04.111Z,1601.28
2019-04-26T06:02:04.649Z,1785.60
2019-04-26T06:03:05.439Z,1889.28
2019-04-26T06:04:06.109Z,1785.60
2019-04-26T06:05:06.266Z,1520.64
2019-04-26T06:06:06.849Z,1422.72
2019-04-26T06:07:07.329Z,1422.72
2019-04-26T06:08:07.826Z,1497.60
2019-04-26T06:09:08.257Z,1578.24
2019-04-26T06:10:08.681Z,1578.24
2019-04-26T06:11:09.306Z,1509.12
2019-04-26T06:12:12.393Z,1463.04
2019-04-26T06:13:09.248Z,1486.08
2019-04-26T06:14:11.164Z,1555.20
2019-04-26T06:15:11.799Z,1624.32
2019-04-26T06:16:12.204Z,1635.84
2019-04-26T06:17:12.959Z,1624.32
2019-04-26T06:18:13.668Z,1589.76
2019-04-26T06:19:14.247Z,1543.68
2019-04-26T06:20:22.654Z,1486.08
2019-04-26T06:21:14.567Z,1474.56
2019-04-26T06:22:16.058Z,1497.60
2019-04-26T06:23:16.595Z,1520.64
2019-04-26T06:24:17.186Z,1532.16
2019-04-26T06:25:17.599Z,1520.64
2019-04-26T06:26:18.296Z,1497.60
2019-04-26T06:27:18.791Z,1497.60
2019-04-26T06:28:19.296Z,1497.60
2019-04-26T06:29:19.963Z,1497.60
2019-04-26T06:30:20.490Z,1520.64
2019-04-26T06:31:21.059Z,1532.16
2019-04-26T06:32:21.761Z,1543.68
2019-04-26T06:33:21.307Z,1566.72
2019-04-26T06:34:22.841Z,1578.24
2019-04-26T06:34:31.398Z,1578.24
2019-04-26T06:35:33.149Z,1589.76
2019-04-26T06:36:33.791Z,1612.80
2019-04-26T06:37:34.302Z,1647.36
2019-04-26T06:38:43.739Z,1704.96
2019-04-26T06:39:34.214Z,1785.60
2019-04-26T06:40:41.793Z,1969.92
2019-04-26T06:41:35.138Z,2096.64
2019-04-26T06:42:35.738Z,2234.88
2019-04-26T06:43:37.343Z,2419.20
2019-04-26T06:44:37.774Z,2626.56
2019-04-26T06:45:38.277Z,2880.00
2019-04-26T06:46:38.757Z,3202.56
2019-04-26T06:47:39.213Z,3502.08
2019-04-26T06:48:39.715Z,3709.44
2019-04-26T06:49:40.335Z,3939.84
2019-04-26T06:50:40.856Z,4170.24
2019-04-26T06:51:41.430Z,4262.40
2019-04-26T06:52:42.037Z,4400.64
2019-04-26T06:53:42.520Z,4515.84
2019-04-26T06:54:43.068Z,4584.96
2019-04-26T06:55:43.480Z,4584.96
2019-04-26T06:56:44.203Z,4584.96
2019-04-26T06:57:44.926Z,4561.92
2019-04-26T06:58:45.618Z,4561.92
2019-04-26T06:59:45.994Z,4608.00
2019-04-26T07:00:46.895Z,4654.08
2019-04-26T07:01:47.421Z,4723.20
2019-04-26T07:02:47.998Z,4861.44
2019-04-26T07:03:48.398Z,5045.76
2019-04-26T07:04:48.881Z,5253.12
2019-04-26T07:05:49.436Z,5437.44
2019-04-26T07:06:49.894Z,5575.68
2019-04-26T07:07:49.493Z,5690.88
2019-04-26T07:08:57.696Z,5736.96
2019-04-26T07:09:50.617Z,5690.88
2019-04-26T07:10:52.168Z,5667.84
2019-04-26T07:11:51.114Z,5760.00
2019-04-26T07:12:52.748Z,5898.24
2019-04-26T07:13:53.247Z,6036.48
2019-04-26T07:14:54.128Z,6082.56
2019-04-26T07:15:54.663Z,6082.56
2019-04-26T07:16:55.208Z,6082.56
2019-04-26T07:17:55.579Z,5944.32
2019-04-26T07:18:56.238Z,5644.80
2019-04-26T07:19:58.523Z,5368.32
2019-04-26T07:20:56.228Z,5253.12
2019-04-26T07:21:57.770Z,5253.12
2019-04-26T07:22:58.211Z,5253.12
2019-04-26T07:23:58.573Z,5230.08
2019-04-26T07:24:07.114Z,5230.08
2019-04-26T07:25:08.978Z,5160.96
2019-04-26T07:26:08.192Z,5184.00
2019-04-26T07:27:09.403Z,5160.96
2019-04-26T07:28:12.218Z,5045.76
2019-04-26T07:29:11.273Z,4976.64
2019-04-26T07:30:12.029Z,4976.64
2019-04-26T07:31:11.341Z,4861.44
2019-04-26T07:32:11.792Z,4861.44
2019-04-26T07:33:13.260Z,4930.56
2019-04-26T07:34:13.843Z,5022.72
2019-04-26T07:35:14.341Z,5276.16
2019-04-26T07:36:14.817Z,5345.28
2019-04-26T07:37:15.194Z,5391.36
2019-04-26T07:38:15.567Z,5460.48
2019-04-26T07:39:20.371Z,5552.64
2019-04-26T07:40:15.457Z,5621.76
2019-04-26T07:41:16.897Z,5736.96
2019-04-26T07:42:17.313Z,5852.16
2019-04-26T07:43:17.902Z,5990.40
2019-04-26T07:44:18.106Z,5990.40
2019-04-26T07:45:18.693Z,5990.40
2019-04-26T07:46:19.477Z,5990.40
2019-04-26T07:47:19.957Z,5944.32
2019-04-26T07:48:20.581Z,5736.96
2019-04-26T07:49:21.059Z,5644.80
2019-04-26T07:50:21.607Z,5552.64
2019-04-26T07:51:22.192Z,5483.52
2019-04-26T07:52:22.610Z,5506.56
2019-04-26T07:53:23.067Z,5575.68
2019-04-26T07:54:23.488Z,5690.88
2019-04-26T07:55:24.319Z,5852.16
2019-04-26T07:56:24.030Z,5990.40
2019-04-26T07:57:24.468Z,6174.72
2019-04-26T07:58:25.865Z,6312.96
2019-04-26T07:59:26.406Z,6451.20
2019-04-26T08:00:26.852Z,6405.12
2019-04-26T08:01:26.930Z,6266.88
2019-04-26T08:02:27.436Z,6082.56
2019-04-26T08:03:28.313Z,5875.20
2019-04-26T08:04:29.606Z,5644.80
2019-04-26T08:05:28.380Z,5460.48
2019-04-26T08:06:29.979Z,5414.40
2019-04-26T08:07:30.685Z,5483.52
2019-04-26T08:08:31.299Z,5644.80
2019-04-26T08:09:31.739Z,5875.20
2019-04-26T08:10:32.389Z,6036.48
2019-04-26T08:11:32.989Z,6082.56
2019-04-26T08:12:33.427Z,6036.48
2019-04-26T08:13:34.082Z,5944.32
2019-04-26T08:14:34.619Z,5990.40
2019-04-26T08:14:43.181Z,5990.40
2019-04-26T08:15:44.662Z,6082.56
2019-04-26T08:16:45.255Z,6174.72
2019-04-26T08:17:45.658Z,6266.88
2019-04-26T08:18:46.122Z,6405.12
2019-04-26T08:19:46.618Z,6543.36
2019-04-26T08:20:48.342Z,6773.76
2019-04-26T08:21:47.966Z,6958.08
2019-04-26T08:22:46.906Z,7142.40
2019-04-26T08:23:48.327Z,7280.64
2019-04-26T08:24:48.720Z,7372.80
2019-04-26T08:25:49.161Z,7464.96
2019-04-26T08:26:49.911Z,7557.12
2019-04-26T08:27:49.928Z,7649.28
2019-04-26T08:28:50.394Z,7695.36
2019-04-26T08:29:50.906Z,7741.44
2019-04-26T08:30:51.324Z,7741.44
2019-04-26T08:31:53.627Z,7787.52
2019-04-26T08:32:52.259Z,7787.52
2019-04-26T08:33:52.344Z,7787.52
2019-04-26T08:34:54.288Z,7741.44
2019-04-26T08:35:53.501Z,7787.52
2019-04-26T08:36:57.272Z,7879.68
2019-04-26T08:37:54.739Z,7925.76
2019-04-26T08:38:57.177Z,7925.76
2019-04-26T08:39:56.772Z,7833.60
2019-04-26T08:41:00.518Z,7695.36
2019-04-26T08:41:57.390Z,7603.20
2019-04-26T08:42:59.072Z,7557.12
2019-04-26T08:44:03.254Z,7511.04
2019-04-26T08:44:59.349Z,7511.04
2019-04-26T08:46:03.073Z,7649.28
2019-04-26T08:47:00.927Z,7925.76
2019-04-26T08:48:01.334Z,8294.40
2019-04-26T08:49:06.490Z,8709.12
2019-04-26T08:50:02.558Z,9077.76
2019-04-26T08:51:04.165Z,9446.40
2019-04-26T08:52:13.909Z,9722.88
2019-04-26T08:53:04.315Z,9953.28
2019-04-26T08:54:06.059Z,10091.52
2019-04-26T08:55:06.751Z,9861.12
2019-04-26T08:56:06.363Z,9492.48
2019-04-26T08:57:06.903Z,9354.24
2019-04-26T08:58:08.270Z,9538.56
2019-04-26T08:59:07.662Z,9815.04
2019-04-26T09:00:09.530Z,10183.68
2019-04-26T09:01:10.237Z,10690.56
2019-04-26T09:02:11.059Z,11105.28
2019-04-26T09:03:12.041Z,11151.36
2019-04-26T09:04:10.841Z,10874.88
2019-04-26T09:05:12.358Z,10552.32
2019-04-26T09:06:12.870Z,10275.84
2019-04-26T09:07:13.148Z,9999.36
2019-04-26T09:08:13.277Z,9584.64
2019-04-26T09:09:14.416Z,9169.92
2019-04-26T09:10:13.552Z,8893.44
2019-04-26T09:11:25.638Z,8709.12
2019-04-26T09:12:22.868Z,8616.96
2019-04-26T09:13:15.359Z,8570.88
2019-04-26T09:13:23.922Z,8570.88
2019-04-26T09:14:25.318Z,8432.64
2019-04-26T09:15:26.074Z,8294.40
2019-04-26T09:16:25.591Z,8202.24
2019-04-26T09:17:27.726Z,7925.76
2019-04-26T09:18:27.890Z,7511.04
2019-04-26T09:19:30.588Z,7188.48
2019-04-26T09:20:29.876Z,7096.32
2019-04-26T09:21:28.978Z,7280.64
2019-04-26T09:22:29.368Z,7695.36
2019-04-26T09:23:39.944Z,8248.32
2019-04-26T09:24:30.406Z,8755.20
2019-04-26T09:25:34.458Z,9031.68
2019-04-26T09:26:31.776Z,9123.84
2019-04-26T09:27:32.177Z,9216.00
2019-04-26T09:28:34.613Z,9216.00
2019-04-26T09:29:34.026Z,9262.08
2019-04-26T09:30:38.202Z,9216.00
2019-04-26T09:31:34.045Z,9077.76
2019-04-26T09:32:35.470Z,8893.44
2019-04-26T09:33:37.431Z,8663.04
2019-04-26T09:34:35.586Z,8386.56
2019-04-26T09:35:37.070Z,8202.24
2019-04-26T09:36:37.591Z,8110.08
2019-04-26T09:37:38.063Z,8110.08
2019-04-26T09:38:38.625Z,8294.40
2019-04-26T09:39:41.553Z,8524.80
2019-04-26T09:40:38.570Z,8847.36
2019-04-26T09:41:40.421Z,9169.92
2019-04-26T09:42:41.072Z,9400.32
2019-04-26T09:43:40.443Z,9538.56
2019-04-26T09:44:43.018Z,9492.48
2019-04-26T09:45:41.350Z,9446.40
2019-04-26T09:46:44.383Z,9400.32
2019-04-26T09:47:42.370Z,9400.32
2019-04-26T09:48:44.106Z,9400.32
2019-04-26T09:49:44.070Z,9538.56
2019-04-26T09:50:44.724Z,9861.12
2019-04-26T09:51:46.247Z,10321.92
2019-04-26T09:52:45.585Z,10828.80
2019-04-26T09:53:47.057Z,11381.76
2019-04-26T09:54:47.493Z,11796.48
2019-04-26T09:55:47.912Z,12072.96
2019-04-26T09:56:48.481Z,12349.44
2019-04-26T09:57:49.013Z,12441.60
2019-04-26T09:58:49.645Z,12718.08
2019-04-26T09:59:50.164Z,13271.04
2019-04-26T10:00:50.620Z,14192.64
2019-04-26T10:01:51.081Z,15390.72
2019-04-26T10:02:51.537Z,16680.96
2019-04-26T10:03:52.337Z,17326.08
2019-04-26T10:04:53.348Z,18155.52
2019-04-26T10:05:55.881Z,19077.12
2019-04-26T10:06:53.363Z,20459.52
2019-04-26T10:07:54.803Z,21841.92
2019-04-26T10:08:55.377Z,23040.00
2019-04-26T10:09:56.481Z,23961.60
2019-04-26T10:10:55.251Z,24883.20
2019-04-26T10:11:56.821Z,25251.84
2019-04-26T10:12:57.219Z,25804.80
2019-04-26T10:13:05.780Z,25804.80
2019-04-26T10:14:07.299Z,24514.56
2019-04-26T10:15:07.344Z,22763.52
2019-04-26T10:16:07.897Z,23777.28
2019-04-26T10:17:11.594Z,26910.72
2019-04-26T10:18:08.302Z,27832.32
2019-04-26T10:19:08.578Z,21565.44
2019-04-26T10:20:10.033Z,20275.20
2019-04-26T10:21:10.880Z,23040.00
2019-04-26T10:22:11.547Z,23408.64
2019-04-26T10:23:11.995Z,22579.20
2019-04-26T10:24:12.431Z,22210.56
2019-04-26T10:25:16.570Z,21934.08
2019-04-26T10:26:12.441Z,23132.16
2019-04-26T10:27:14.019Z,24145.92
2019-04-26T10:28:15.988Z,20459.52
2019-04-26T10:29:13.755Z,21749.76
2019-04-26T10:30:15.191Z,23132.16
2019-04-26T10:31:17.231Z,25989.12
2019-04-26T10:32:14.934Z,26542.08
2019-04-26T10:33:16.647Z,23777.28
2019-04-26T10:34:17.003Z,19261.44
2019-04-26T10:35:17.503Z,17879.04
2019-04-26T10:36:16.527Z,17786.88
2019-04-26T10:37:18.024Z,18800.64
2019-04-26T10:38:19.317Z,20183.04
2019-04-26T10:39:18.349Z,20551.68
2019-04-26T10:40:20.277Z,20183.04
2019-04-26T10:41:20.840Z,20090.88
2019-04-26T10:42:21.296Z,20459.52
2019-04-26T10:43:21.855Z,20090.88
2019-04-26T10:44:22.362Z,19998.72
2019-04-26T10:45:23.232Z,21012.48
2019-04-26T10:46:24.569Z,20183.04
2019-04-26T10:47:23.138Z,18800.64
2019-04-26T10:48:24.623Z,17418.24
2019-04-26T10:49:26.063Z,16404.48
2019-04-26T10:50:24.502Z,16220.16
2019-04-26T10:51:25.886Z,16865.28
2019-04-26T10:52:26.390Z,17602.56
2019-04-26T10:53:30.005Z,18247.68
2019-04-26T10:54:26.239Z,18708.48
2019-04-26T10:55:27.760Z,18432.00
2019-04-26T10:56:28.362Z,18155.52
2019-04-26T10:57:28.928Z,17049.60
2019-04-26T10:58:31.852Z,16680.96
2019-04-26T10:59:31.662Z,16404.48
2019-04-26T11:00:29.679Z,15943.68
2019-04-26T11:01:30.181Z,15298.56
2019-04-26T11:02:31.819Z,15206.40
2019-04-26T11:03:34.946Z,15759.36
2019-04-26T11:04:32.025Z,17049.60
2019-04-26T11:05:33.051Z,19261.44
2019-04-26T11:06:33.777Z,22763.52
2019-04-26T11:07:34.380Z,28753.92
2019-04-26T11:07:43.437Z,29122.56
2019-04-26T11:08:44.773Z,30781.44
2019-04-26T11:09:45.360Z,32440.32
2019-04-26T11:10:48.922Z,29491.20
2019-04-26T11:11:45.218Z,26357.76
2019-04-26T11:12:46.873Z,29122.56
2019-04-26T11:13:47.493Z,27648.00
2019-04-26T11:14:48.194Z,23316.48
2019-04-26T11:15:47.537Z,18892.80
2019-04-26T11:16:49.179Z,17510.40
2019-04-26T11:17:50.130Z,16404.48
2019-04-26T11:18:49.141Z,16588.80
2019-04-26T11:19:50.253Z,17786.88
2019-04-26T11:20:51.079Z,18155.52
2019-04-26T11:21:54.725Z,18708.48
2019-04-26T11:22:51.523Z,20551.68
2019-04-26T11:23:53.235Z,23408.64
2019-04-26T11:24:54.805Z,25989.12
2019-04-26T11:25:53.473Z,27832.32
2019-04-26T11:26:53.868Z,30228.48
2019-04-26T11:27:55.219Z,29859.84
2019-04-26T11:28:57.151Z,28016.64
2019-04-26T11:29:55.268Z,27463.68
2019-04-26T11:30:57.371Z,24330.24
2019-04-26T11:31:58.525Z,21749.76
2019-04-26T11:32:56.506Z,18800.64
2019-04-26T11:34:05.109Z,17326.08
2019-04-26T11:34:58.793Z,16680.96
2019-04-26T11:35:58.614Z,17233.92
2019-04-26T11:37:00.198Z,19445.76
2019-04-26T11:38:00.894Z,17049.60
2019-04-26T11:39:01.307Z,17326.08
2019-04-26T11:40:00.923Z,17510.40
2019-04-26T11:41:06.114Z,17694.72
2019-04-26T11:42:01.764Z,18063.36
2019-04-26T11:43:03.574Z,18247.68
2019-04-26T11:44:03.926Z,18247.68
2019-04-26T11:45:06.320Z,18063.36
2019-04-26T11:46:04.898Z,17602.56
2019-04-26T11:47:07.807Z,17233.92
2019-04-26T11:48:04.588Z,16957.44
2019-04-26T11:49:07.196Z,16680.96
2019-04-26T11:50:05.592Z,16680.96
2019-04-26T11:51:06.497Z,16680.96
2019-04-26T11:52:07.997Z,16865.28
2019-04-26T11:53:10.115Z,17418.24
2019-04-26T11:54:08.011Z,18800.64
2019-04-26T11:55:09.582Z,20736.00
2019-04-26T11:56:10.240Z,23040.00
2019-04-26T11:57:11.965Z,24514.56
2019-04-26T11:58:10.654Z,25436.16
2019-04-26T11:59:12.679Z,26357.76
2019-04-26T12:00:13.184Z,26357.76
2019-04-26T12:01:13.725Z,28200.96
2019-04-26T12:02:16.190Z,28569.60
2019-04-26T12:03:13.972Z,28016.64
2019-04-26T12:04:15.743Z,27095.04
2019-04-26T12:05:16.370Z,25251.84
2019-04-26T12:06:17.166Z,26173.44
2019-04-26T12:07:17.743Z,25620.48
2019-04-26T12:08:18.195Z,26542.08
2019-04-26T12:09:18.684Z,25620.48
2019-04-26T12:10:19.116Z,22763.52
2019-04-26T12:10:33.690Z,22671.36
2019-04-26T12:11:35.387Z,22947.84
2019-04-26T12:12:34.805Z,22671.36
2019-04-26T12:13:36.413Z,21381.12
2019-04-26T12:14:35.875Z,20828.16
2019-04-26T12:15:39.078Z,18800.64
2019-04-26T12:16:48.094Z,16865.28
2019-04-26T12:17:38.003Z,14561.28
2019-04-26T12:18:40.310Z,13271.04
2019-04-26T12:19:38.990Z,12257.28
2019-04-26T12:20:40.630Z,11473.92
2019-04-26T12:21:39.814Z,11013.12
2019-04-26T12:22:43.311Z,11013.12